createdAt,value
2019-05-09T00:01:47.899Z,87.15
2019-05-09T00:04:15.423Z,86.40
2019-05-09T00:06:43.161Z,86.41
2019-05-09T00:09:10.327Z,86.88
2019-05-09T00:11:39.425Z,87.58
2019-05-09T00:14:07.961Z,87.49
2019-05-09T00:16:35.453Z,87.19
2019-05-09T00:19:03.437Z,87.54
2019-05-09T00:21:33.272Z,86.78
2019-05-09T00:24:00.057Z,87.55
2019-05-09T00:26:27.538Z,87.07
2019-05-09T00:28:55.468Z,86.79
2019-05-09T00:31:37.814Z,86.22
2019-05-09T00:34:05.322Z,86.59
2019-05-09T00:36:33.460Z,86.61
2019-05-09T00:39:00.187Z,86.17
2019-05-09T00:41:27.648Z,86.78
2019-05-09T00:43:55.085Z,87.14
2019-05-09T00:46:23.626Z,87.34
2019-05-09T00:48:55.309Z,87.23
2019-05-09T00:51:23.394Z,87.37
2019-05-09T00:53:50.274Z,86.93
2019-05-09T00:56:17.697Z,87.39
2019-05-09T00:58:45.209Z,87.46
2019-05-09T01:01:13.305Z,87.34
2019-05-09T01:03:40.095Z,86.75
2019-05-09T01:06:07.523Z,87.42
2019-05-09T01:08:35.020Z,87.62
2019-05-09T01:11:11.740Z,87.55
2019-05-09T01:13:30.470Z,87.51
2019-05-09T01:15:57.934Z,87.81
2019-05-09T01:18:25.352Z,87.78
2019-05-09T01:20:53.158Z,88.54
2019-05-09T01:23:20.883Z,87.97
2019-05-09T01:25:48.398Z,87.82
2019-05-09T01:28:15.845Z,87.38
2019-05-09T01:30:43.859Z,87.40
2019-05-09T01:33:10.809Z,87.14
2019-05-09T01:35:38.261Z,86.97
2019-05-09T01:38:05.705Z,86.37
2019-05-09T01:40:33.257Z,85.96
2019-05-09T01:43:01.019Z,86.38
2019-05-09T01:45:28.496Z,86.40
2019-05-09T01:47:55.911Z,86.17
2019-05-09T01:50:23.452Z,85.65
2019-05-09T01:52:50.821Z,85.62
2019-05-09T01:55:18.274Z,85.86
2019-05-09T01:57:47.907Z,86.18
2019-05-09T02:00:13.305Z,85.82
2019-05-09T02:02:40.632Z,85.68
2019-05-09T02:05:08.071Z,86.15
2019-05-09T02:07:35.508Z,86.09
2019-05-09T02:10:03.493Z,86.39
2019-05-09T02:12:30.421Z,85.82
2019-05-09T02:15:00.805Z,85.36
2019-05-09T02:17:30.053Z,85.60
2019-05-09T02:19:57.495Z,85.64
2019-05-09T02:22:30.488Z,85.82
2019-05-09T02:24:57.980Z,85.07
2019-05-09T02:27:25.406Z,84.99
2019-05-09T02:29:54.433Z,84.89
2019-05-09T02:32:23.739Z,84.64
2019-05-09T02:34:48.270Z,84.27
2019-05-09T02:37:18.576Z,84.70
2019-05-09T02:39:43.214Z,84.57
2019-05-09T02:42:13.943Z,84.46
2019-05-09T02:44:39.532Z,85.17
2019-05-09T02:47:08.747Z,85.05
2019-05-09T02:49:33.848Z,84.39
2019-05-09T02:52:02.525Z,85.10
2019-05-09T02:54:30.200Z,84.65
2019-05-09T02:56:58.233Z,84.49
2019-05-09T02:59:29.725Z,84.70
2019-05-09T03:02:09.586Z,84.67
2019-05-09T03:04:38.919Z,84.50
2019-05-09T03:07:03.608Z,84.68
2019-05-09T03:09:31.047Z,84.67
2019-05-09T03:11:59.255Z,85.01
2019-05-09T03:14:28.648Z,84.33
2019-05-09T03:16:53.441Z,83.61
2019-05-09T03:19:20.892Z,83.78
2019-05-09T03:21:49.707Z,84.24
2019-05-09T03:24:18.447Z,83.81
2019-05-09T03:26:44.690Z,83.76
2019-05-09T03:29:12.974Z,83.54
2019-05-09T03:31:40.441Z,84.07
2019-05-09T03:34:09.470Z,84.33
2019-05-09T03:36:35.340Z,84.56
2019-05-09T03:39:03.270Z,84.54
2019-05-09T03:41:30.704Z,84.28
2019-05-09T03:43:58.699Z,84.69
2019-05-09T03:46:28.020Z,84.18
2019-05-09T03:49:03.261Z,83.59
2019-05-09T03:51:30.723Z,84.28
2019-05-09T03:53:58.188Z,84.08
2019-05-09T03:56:37.473Z,84.17
2019-05-09T03:59:03.694Z,83.53
2019-05-09T04:01:31.174Z,83.78
2019-05-09T04:03:58.637Z,83.87
2019-05-09T04:06:28.148Z,82.83
2019-05-09T04:08:54.003Z,82.08
2019-05-09T04:11:21.029Z,81.44
2019-05-09T04:13:48.481Z,81.76
2019-05-09T04:16:18.844Z,82.17
2019-05-09T04:18:43.403Z,82.97
2019-05-09T04:21:10.850Z,82.54
2019-05-09T04:23:38.319Z,82.88
2019-05-09T04:26:07.548Z,82.42
2019-05-09T04:28:34.201Z,81.91
2019-05-09T04:31:01.636Z,82.13
2019-05-09T04:33:29.067Z,83.20
2019-05-09T04:35:57.958Z,82.65
2019-05-09T04:38:23.970Z,82.14
2019-05-09T04:40:51.421Z,82.43
2019-05-09T04:43:26.911Z,83.26
2019-05-09T04:45:49.148Z,83.15
2019-05-09T04:48:24.018Z,82.66
2019-05-09T04:50:49.754Z,82.77
2019-05-09T04:53:18.316Z,82.31
2019-05-09T04:55:44.706Z,82.86
2019-05-09T04:58:12.119Z,83.44
2019-05-09T05:00:57.251Z,84.42
2019-05-09T05:03:24.051Z,84.67
2019-05-09T05:05:51.509Z,84.20
2019-05-09T05:08:18.948Z,83.35
2019-05-09T05:10:47.754Z,83.17
2019-05-09T05:13:25.621Z,82.94
2019-05-09T05:15:41.352Z,84.08
2019-05-09T05:18:08.798Z,84.95
2019-05-09T05:20:37.985Z,84.47
2019-05-09T05:23:03.720Z,83.77
2019-05-09T05:25:32.546Z,83.75
2019-05-09T05:28:00.057Z,83.66
2019-05-09T05:30:28.410Z,83.33
2019-05-09T05:32:57.682Z,83.36
2019-05-09T05:35:23.246Z,83.77
2019-05-09T05:37:52.865Z,84.00
2019-05-09T05:40:20.719Z,84.11
2019-05-09T05:42:48.153Z,84.53
2019-05-09T05:45:17.971Z,84.55
2019-05-09T05:47:43.054Z,83.92
2019-05-09T05:50:10.512Z,84.42
2019-05-09T05:52:37.928Z,84.60
2019-05-09T05:55:07.566Z,84.27
2019-05-09T05:57:33.525Z,85.11
2019-05-09T06:00:01.022Z,83.99
2019-05-09T06:02:28.461Z,83.99
2019-05-09T06:04:57.918Z,83.06
2019-05-09T06:07:24.806Z,83.55
2019-05-09T06:09:52.287Z,83.94
2019-05-09T06:12:19.726Z,84.00
2019-05-09T06:14:48.111Z,84.41
2019-05-09T06:17:17.930Z,84.19
2019-05-09T06:19:43.661Z,84.15
2019-05-09T06:22:11.099Z,84.86
2019-05-09T06:24:38.950Z,83.85
2019-05-09T06:27:09.835Z,83.48
2019-05-09T06:29:33.540Z,84.39
2019-05-09T06:32:01.110Z,83.95
2019-05-09T06:34:28.603Z,83.88
2019-05-09T06:36:58.528Z,83.50
2019-05-09T06:39:23.506Z,84.39
2019-05-09T06:41:51.720Z,84.35
2019-05-09T06:44:33.009Z,83.30
2019-05-09T06:47:00.462Z,82.80
2019-05-09T06:49:31.595Z,82.57
2019-05-09T06:51:58.032Z,82.29
2019-05-09T06:54:24.445Z,82.25
2019-05-09T06:56:51.925Z,81.81
2019-05-09T06:59:19.374Z,81.52
2019-05-09T07:02:02.518Z,82.27
2019-05-09T07:04:38.081Z,81.83
2019-05-09T07:07:19.375Z,81.12
2019-05-09T07:09:47.974Z,81.43
2019-05-09T07:12:14.346Z,81.12
2019-05-09T07:14:42.081Z,81.13
2019-05-09T07:17:09.235Z,81.16
2019-05-09T07:19:38.366Z,79.72
2019-05-09T07:22:14.115Z,80.22
2019-05-09T07:24:48.070Z,79.95
2019-05-09T07:27:14.641Z,79.73
2019-05-09T07:29:42.084Z,79.92
2019-05-09T07:32:14.941Z,79.84
2019-05-09T07:34:44.825Z,79.89
2019-05-09T07:37:12.301Z,79.43
2019-05-09T07:39:39.731Z,79.71
2019-05-09T07:42:07.801Z,80.12
2019-05-09T07:44:46.189Z,79.99
2019-05-09T07:47:02.155Z,79.74
2019-05-09T07:49:29.603Z,78.78
2019-05-09T07:51:59.093Z,79.59
2019-05-09T07:54:25.721Z,78.79
2019-05-09T07:56:52.022Z,79.00
2019-05-09T07:59:19.452Z,79.64
2019-05-09T08:01:48.731Z,78.48
2019-05-09T08:04:14.345Z,78.12
2019-05-09T08:06:41.785Z,77.61
2019-05-09T08:09:09.249Z,77.08
2019-05-09T08:11:37.664Z,78.31
2019-05-09T08:16:27.927Z,77.61
2019-05-09T08:18:54.758Z,78.25
2019-05-09T08:21:22.218Z,77.77
2019-05-09T08:23:49.678Z,76.52
2019-05-09T08:26:18.831Z,77.30
2019-05-09T08:28:44.646Z,76.94
2019-05-09T08:31:12.159Z,77.00
2019-05-09T08:33:39.646Z,76.65
2019-05-09T08:36:08.621Z,77.31
2019-05-09T08:38:34.565Z,77.40
2019-05-09T08:41:09.051Z,77.05
2019-05-09T08:43:34.342Z,75.62
2019-05-09T08:46:01.767Z,75.48
2019-05-09T08:48:29.227Z,74.81
2019-05-09T08:50:58.260Z,73.51
2019-05-09T08:53:24.152Z,74.32
2019-05-09T08:55:51.624Z,74.92
2019-05-09T08:58:19.864Z,73.74
2019-05-09T09:00:49.065Z,72.58
2019-05-09T09:03:14.439Z,72.69
2019-05-09T09:05:43.385Z,72.87
2019-05-09T09:08:09.365Z,76.50
2019-05-09T09:10:38.570Z,74.96
2019-05-09T09:13:04.260Z,72.09
2019-05-09T09:15:56.116Z,72.52
2019-05-09T09:17:59.211Z,72.36
2019-05-09T09:20:28.749Z,73.45
2019-05-09T09:22:54.298Z,72.87
2019-05-09T09:25:21.717Z,72.33
2019-05-09T09:27:51.111Z,73.41
2019-05-09T09:30:24.517Z,71.83
2019-05-09T09:32:47.619Z,70.20
2019-05-09T09:35:12.456Z,69.01
2019-05-09T09:37:48.588Z,70.51
2019-05-09T09:40:08.673Z,70.94
2019-05-09T09:42:34.856Z,70.49
2019-05-09T09:45:02.335Z,69.29
2019-05-09T09:47:29.795Z,69.54
2019-05-09T09:49:59.493Z,70.06
2019-05-09T09:52:24.721Z,67.44
2019-05-09T09:54:52.177Z,68.01
2019-05-09T09:57:19.599Z,66.75
2019-05-09T09:59:48.581Z,67.53
2019-05-09T10:02:15.415Z,66.69
2019-05-09T10:04:42.869Z,64.96
2019-05-09T10:07:10.287Z,66.10
2019-05-09T10:09:37.749Z,65.89
2019-05-09T10:12:05.213Z,66.82
2019-05-09T10:14:32.677Z,66.77
2019-05-09T10:17:21.491Z,67.07
2019-05-09T10:19:51.349Z,66.55
2019-05-09T10:22:27.346Z,68.12
2019-05-09T10:24:54.862Z,65.67
2019-05-09T10:27:22.340Z,66.49
2019-05-09T10:29:49.880Z,67.50
2019-05-09T10:32:18.238Z,65.39
2019-05-09T10:34:44.964Z,66.77
2019-05-09T10:37:12.407Z,67.19
2019-05-09T10:39:39.846Z,68.40
2019-05-09T10:42:22.175Z,67.42
2019-05-09T10:44:49.642Z,66.90
2019-05-09T10:47:22.577Z,67.20
2019-05-09T10:49:50.714Z,66.93
2019-05-09T10:52:19.053Z,66.03
2019-05-09T10:54:46.524Z,66.99
2019-05-09T10:57:13.996Z,66.72
2019-05-09T10:59:41.450Z,66.97
2019-05-09T11:02:24.436Z,65.98
2019-05-09T11:04:51.875Z,65.16
2019-05-09T11:07:19.313Z,65.87
2019-05-09T11:09:48.025Z,66.27
2019-05-09T11:12:14.249Z,66.27
2019-05-09T11:14:41.674Z,66.83
2019-05-09T11:17:17.561Z,64.80
2019-05-09T11:19:36.586Z,65.48
2019-05-09T11:22:04.067Z,65.09
2019-05-09T11:24:45.359Z,64.99
2019-05-09T11:26:59.050Z,65.15
2019-05-09T11:29:28.149Z,64.50
2019-05-09T11:31:53.970Z,64.41
2019-05-09T11:34:21.962Z,66.31
2019-05-09T11:36:50.137Z,65.53
2019-05-09T11:39:35.197Z,64.08
2019-05-09T11:41:45.064Z,64.22
2019-05-09T11:44:12.529Z,65.87
2019-05-09T11:46:39.965Z,65.54
2019-05-09T11:49:08.358Z,64.75
2019-05-09T11:51:34.946Z,65.03
2019-05-09T11:54:02.398Z,64.23
2019-05-09T11:56:29.828Z,63.74
2019-05-09T11:58:57.896Z,64.50
2019-05-09T12:01:24.877Z,64.79
2019-05-09T12:03:52.642Z,64.26
2019-05-09T12:06:20.671Z,65.23
2019-05-09T12:08:48.392Z,65.01
2019-05-09T12:11:18.233Z,65.41
2019-05-09T12:13:42.913Z,64.78
2019-05-09T12:16:10.374Z,64.03
2019-05-09T12:18:37.926Z,65.41
2019-05-09T12:21:05.654Z,63.83
2019-05-09T12:23:33.094Z,64.59
2019-05-09T12:26:00.525Z,65.34
2019-05-09T12:28:28.154Z,64.87
2019-05-09T12:30:55.581Z,64.22
2019-05-09T12:33:23.084Z,64.16
2019-05-09T12:35:51.242Z,64.92
2019-05-09T12:38:18.714Z,64.49
2019-05-09T12:40:48.159Z,64.69
2019-05-09T12:43:13.716Z,63.82
2019-05-09T12:45:41.143Z,62.23
2019-05-09T12:48:14.808Z,63.01
2019-05-09T12:50:38.556Z,63.78
2019-05-09T12:53:03.514Z,63.45
2019-05-09T12:55:30.978Z,64.25
2019-05-09T12:57:59.445Z,64.14
2019-05-09T13:00:28.344Z,63.83
2019-05-09T13:02:53.427Z,63.98
2019-05-09T13:05:21.850Z,64.57
2019-05-09T13:07:49.307Z,63.86
2019-05-09T13:10:19.453Z,64.42
2019-05-09T13:12:44.273Z,64.71
2019-05-09T13:15:11.778Z,64.60
2019-05-09T13:17:40.124Z,65.42
2019-05-09T13:20:08.053Z,64.48
2019-05-09T13:22:35.031Z,64.70
2019-05-09T13:25:03.100Z,65.56
2019-05-09T13:27:29.944Z,65.15
2019-05-09T13:29:57.444Z,65.79
2019-05-09T13:32:24.904Z,65.38
2019-05-09T13:34:52.534Z,65.30
2019-05-09T13:37:20.046Z,64.65
2019-05-09T13:39:47.706Z,65.27
2019-05-09T13:42:15.068Z,63.90
2019-05-09T13:44:42.559Z,63.95
2019-05-09T13:47:11.052Z,63.56
2019-05-09T13:49:39.489Z,63.93
2019-05-09T13:52:05.322Z,63.50
2019-05-09T13:54:32.415Z,63.23
2019-05-09T13:57:01.423Z,62.96
2019-05-09T13:59:30.031Z,63.40
2019-05-09T14:01:54.914Z,63.11
2019-05-09T14:04:23.105Z,63.96
2019-05-09T14:06:50.585Z,63.61
2019-05-09T14:09:19.904Z,64.04
2019-05-09T14:11:47.954Z,64.21
2019-05-09T14:14:14.872Z,64.06
2019-05-09T14:16:42.321Z,64.35
2019-05-09T14:19:30.050Z,63.35
2019-05-09T14:21:37.294Z,64.15
2019-05-09T14:24:14.091Z,64.75
2019-05-09T14:26:32.328Z,64.72
2019-05-09T14:28:59.813Z,65.18
2019-05-09T14:31:32.108Z,64.14
2019-05-09T14:33:54.864Z,64.37
2019-05-09T14:36:22.383Z,63.33
2019-05-09T14:38:49.947Z,63.64
2019-05-09T14:41:19.240Z,63.14
2019-05-09T14:43:44.974Z,62.01
2019-05-09T14:46:12.449Z,62.97
2019-05-09T14:48:39.942Z,62.25
2019-05-09T14:51:07.791Z,61.82
2019-05-09T14:53:34.926Z,61.27
2019-05-09T14:56:02.441Z,62.24
2019-05-09T14:58:29.905Z,62.13
2019-05-09T15:01:00.620Z,61.33
2019-05-09T15:03:24.871Z,62.24
2019-05-09T15:05:52.629Z,62.59
2019-05-09T15:08:20.975Z,62.67
2019-05-09T15:10:48.439Z,61.73
2019-05-09T15:13:15.887Z,62.10
2019-05-09T15:15:43.354Z,60.31
2019-05-09T15:18:10.783Z,59.96
2019-05-09T15:20:38.395Z,60.00
2019-05-09T15:23:05.840Z,60.72
2019-05-09T15:25:33.316Z,61.54
2019-05-09T15:28:00.803Z,61.87
2019-05-09T15:30:28.845Z,62.23
2019-05-09T15:32:55.745Z,62.61
2019-05-09T15:35:23.170Z,62.67
2019-05-09T15:37:50.627Z,62.24
2019-05-09T15:40:18.085Z,62.12
2019-05-09T15:42:47.716Z,63.95
2019-05-09T15:45:13.088Z,62.22
2019-05-09T15:47:40.555Z,62.35
2019-05-09T15:50:19.287Z,58.85
2019-05-09T15:52:38.062Z,58.60
2019-05-09T15:55:03.141Z,57.87
2019-05-09T15:57:30.639Z,57.44
2019-05-09T15:59:58.900Z,57.13
2019-05-09T16:02:28.167Z,57.01
2019-05-09T16:04:53.102Z,56.76
2019-05-09T16:07:20.552Z,57.34
2019-05-09T16:09:48.388Z,57.88
2019-05-09T16:12:15.521Z,59.02
2019-05-09T16:14:42.934Z,57.74
2019-05-09T16:17:10.453Z,58.43
2019-05-09T16:19:38.038Z,59.36
2019-05-09T16:22:07.725Z,58.75
2019-05-09T16:24:32.863Z,58.25
2019-05-09T16:27:00.332Z,58.88
2019-05-09T16:29:29.284Z,58.46
2019-05-09T16:31:58.006Z,58.48
2019-05-09T16:34:23.543Z,58.49
2019-05-09T16:36:50.990Z,58.86
2019-05-09T16:39:18.438Z,60.44
2019-05-09T16:41:48.057Z,59.16
2019-05-09T16:44:13.408Z,58.77
2019-05-09T16:46:40.831Z,58.90
2019-05-09T16:49:11.522Z,58.52
2019-05-09T16:51:37.799Z,57.23
2019-05-09T16:54:04.119Z,57.16
2019-05-09T16:56:31.560Z,57.88
2019-05-09T16:58:59.016Z,59.30
2019-05-09T17:01:28.395Z,59.08
2019-05-09T17:03:54.295Z,59.70
2019-05-09T17:06:21.745Z,60.07
2019-05-09T17:08:49.340Z,60.80
2019-05-09T17:11:19.157Z,60.39
2019-05-09T17:13:44.329Z,61.02
2019-05-09T17:16:11.794Z,60.59
2019-05-09T17:18:39.271Z,59.64
2019-05-09T17:21:18.490Z,59.56
2019-05-09T17:23:38.490Z,59.90
2019-05-09T17:26:05.330Z,59.87
2019-05-09T17:28:33.514Z,60.17
2019-05-09T17:31:01.000Z,60.34
2019-05-09T17:33:28.851Z,61.50
2019-05-09T17:35:57.767Z,61.63
2019-05-09T17:38:23.378Z,61.55
2019-05-09T17:40:51.813Z,62.01
2019-05-09T17:43:19.293Z,62.30
2019-05-09T17:45:47.835Z,62.15
2019-05-09T17:48:14.205Z,62.14
2019-05-09T17:50:41.647Z,63.58
2019-05-09T17:53:09.097Z,63.68
2019-05-09T17:55:38.062Z,63.93
2019-05-09T17:58:04.070Z,64.78
2019-05-09T18:00:31.486Z,64.07
2019-05-09T18:02:58.931Z,63.82
2019-05-09T18:05:26.396Z,63.54
2019-05-09T18:07:53.948Z,63.61
2019-05-09T18:10:21.415Z,64.96
2019-05-09T18:12:48.847Z,64.52
2019-05-09T18:15:18.767Z,64.90
2019-05-09T18:17:47.872Z,64.95
2019-05-09T18:20:13.399Z,65.16
2019-05-09T18:22:40.843Z,64.87
2019-05-09T18:25:08.433Z,65.10
2019-05-09T18:27:37.750Z,65.69
2019-05-09T18:30:03.226Z,65.69
2019-05-09T18:32:30.698Z,66.42
2019-05-09T18:35:19.063Z,66.33
2019-05-09T18:37:48.140Z,66.10
2019-05-09T18:40:14.055Z,66.32
2019-05-09T18:42:41.521Z,66.33
2019-05-09T18:45:08.958Z,66.79
2019-05-09T18:47:36.434Z,65.86
2019-05-09T18:50:04.806Z,65.37
2019-05-09T18:52:32.249Z,66.29
2019-05-09T18:54:59.719Z,65.57
2019-05-09T18:57:27.163Z,65.85
2019-05-09T18:59:54.606Z,65.62
2019-05-09T19:02:22.229Z,65.21
2019-05-09T19:04:49.703Z,65.21
2019-05-09T19:07:22.199Z,65.13
2019-05-09T19:09:44.649Z,65.17
2019-05-09T19:12:12.105Z,65.28
2019-05-09T19:14:39.552Z,65.94
2019-05-09T19:17:23.581Z,65.30
2019-05-09T19:20:06.695Z,66.75
2019-05-09T19:22:34.177Z,69.16
2019-05-09T19:25:01.626Z,69.13
2019-05-09T19:27:29.511Z,70.48
2019-05-09T19:29:56.966Z,69.93
2019-05-09T19:32:24.438Z,68.93
2019-05-09T19:34:51.909Z,68.74
2019-05-09T19:37:19.341Z,69.12
2019-05-09T19:39:46.835Z,69.04
2019-05-09T19:42:17.289Z,70.83
2019-05-09T19:44:44.732Z,72.45
2019-05-09T19:47:12.197Z,73.15
2019-05-09T19:49:39.646Z,73.45
2019-05-09T19:52:07.094Z,74.17
2019-05-09T19:54:34.600Z,74.16
2019-05-09T19:57:02.026Z,75.20
2019-05-09T19:59:30.137Z,74.63
2019-05-09T20:01:57.607Z,74.41
2019-05-09T20:04:25.125Z,74.28
2019-05-09T20:06:52.595Z,74.37
2019-05-09T20:09:20.403Z,74.43
2019-05-09T20:11:48.776Z,75.06
2019-05-09T20:14:16.683Z,75.53
2019-05-09T20:16:48.485Z,76.04
2019-05-09T20:19:15.939Z,76.50
2019-05-09T20:21:43.394Z,75.86
2019-05-09T20:24:10.879Z,77.22
2019-05-09T20:26:38.369Z,79.42
2019-05-09T20:29:05.894Z,81.37
2019-05-09T20:31:33.407Z,83.63
2019-05-09T20:34:00.930Z,85.80
2019-05-09T20:36:28.445Z,86.01
2019-05-09T20:38:55.890Z,87.02
2019-05-09T20:41:23.343Z,88.34
2019-05-09T20:43:50.795Z,88.61
2019-05-09T20:46:18.221Z,89.54
2019-05-09T20:48:45.668Z,89.65
2019-05-09T20:51:13.098Z,88.86
2019-05-09T20:53:40.519Z,89.67
2019-05-09T20:56:07.999Z,89.02
2019-05-09T20:58:35.432Z,88.04
2019-05-09T21:01:03.058Z,87.33
2019-05-09T21:03:30.538Z,89.10
2019-05-09T21:05:57.992Z,88.58
2019-05-09T21:08:25.413Z,89.47
2019-05-09T21:10:52.955Z,90.48
2019-05-09T21:13:20.574Z,90.21
2019-05-09T21:15:48.472Z,90.78
2019-05-09T21:18:15.926Z,91.67
2019-05-09T21:20:43.380Z,92.23
2019-05-09T21:23:23.943Z,91.39
2019-05-09T21:25:38.327Z,91.74
2019-05-09T21:28:05.789Z,91.38
2019-05-09T21:30:33.213Z,90.97
2019-05-09T21:33:00.637Z,91.19
2019-05-09T21:35:28.094Z,91.52
2019-05-09T21:37:55.549Z,91.73
2019-05-09T21:40:23.033Z,91.65
2019-05-09T21:42:50.473Z,90.26
2019-05-09T21:45:17.934Z,89.83
2019-05-09T21:47:45.393Z,90.09
2019-05-09T21:50:12.851Z,90.92
2019-05-09T21:52:40.271Z,91.99
2019-05-09T21:55:07.756Z,91.69
2019-05-09T21:57:35.190Z,92.62
2019-05-09T22:00:02.658Z,91.99
2019-05-09T22:02:30.144Z,92.56
2019-05-09T22:04:57.580Z,92.62
2019-05-09T22:07:25.065Z,93.23
2019-05-09T22:09:52.517Z,93.21
2019-05-09T22:12:21.012Z,93.33
2019-05-09T22:14:48.488Z,93.65
2019-05-09T22:17:18.470Z,93.62
2019-05-09T22:19:45.896Z,93.77
2019-05-09T22:22:13.374Z,93.76
2019-05-09T22:24:40.811Z,93.45
2019-05-09T22:27:08.259Z,93.31
2019-05-09T22:29:35.698Z,92.88
2019-05-09T22:32:03.218Z,93.85
2019-05-09T22:34:30.771Z,94.09
2019-05-09T22:36:58.267Z,94.44
2019-05-09T22:39:25.710Z,94.54
2019-05-09T22:41:53.212Z,94.65
2019-05-09T22:44:21.029Z,94.24
2019-05-09T22:46:48.478Z,94.20
2019-05-09T22:49:15.940Z,94.55
2019-05-09T22:51:43.362Z,94.75
2019-05-09T22:54:13.007Z,94.60
2019-05-09T22:56:38.305Z,95.42
2019-05-09T22:59:05.785Z,95.88
2019-05-09T23:01:33.868Z,96.46
2019-05-09T23:04:01.325Z,96.47
2019-05-09T23:06:28.797Z,95.69
2019-05-09T23:08:56.267Z,95.02
2019-05-09T23:11:23.704Z,95.11
2019-05-09T23:13:52.115Z,95.64
2019-05-09T23:16:20.260Z,95.32
2019-05-09T23:18:47.721Z,95.17
2019-05-09T23:21:15.190Z,95.41
2019-05-09T23:23:42.666Z,95.28
2019-05-09T23:26:10.112Z,95.13
2019-05-09T23:28:37.622Z,95.24
2019-05-09T23:31:05.081Z,94.90
2019-05-09T23:33:32.533Z,95.02
2019-05-09T23:35:59.979Z,95.05
2019-05-09T23:38:27.442Z,94.57
2019-05-09T23:40:54.876Z,94.50
2019-05-09T23:43:22.367Z,93.76
2019-05-09T23:45:49.848Z,93.56
2019-05-09T23:48:17.325Z,93.36
2019-05-09T23:50:44.829Z,93.96
2019-05-09T23:53:12.417Z,93.29
2019-05-09T23:55:45.515Z,93.04
2019-05-09T23:58:18.521Z,91.95
